Marietta — WJ6405 — position and weather

sailwx.info

Track history (hours):
 
Tides and Currents Weather Stations Pressure Air Temp Water Temp Dewpoint Dewpoint Depression Visibility Wind Speed Wind Dir Waves Ship Positions

Marietta

Owner: STAR & CRESCENT BOAT CO, SAN DIEGO, CA. More information available from US FCC via Universal Licensing System and Coast Guard Vessel Documentation Center.

Last reported at 2018-Jan-21 19:11 UTC. Time now 2018-Jan-23 23:52 UTC.
Position N 32°39' W 117°21'.

MMSI: 367373960.

Date/timePositionNaut miles runAvg speedWind from/ knotsBaromVisibWave heightAir tempDewpointWater temp
2018-Jan-21 19:11N 32°39' W 117°21'  
2018-Jan-18 21:30N 32°43' W 117°10'0 0.0
2018-Jan-18 21:00N 32°43' W 117°10'4 6.2
2018-Jan-18 20:24N 32°41' W 117°14'3 7.2
2018-Jan-18 19:56N 32°37' W 117°15'1 0.6
2018-Jan-18 18:30N 32°37' W 117°16'7 1.1
2018-Jan-18 11:52N 32°42' W 117°10'0 0.0
2018-Jan-18 11:16N 32°42' W 117°10'0 0.0
2018-Jan-18 10:51N 32°42' W 117°10'0 0.0
2018-Jan-18 10:15N 32°42' W 117°10'0 0.0
2018-Jan-18 10:00N 32°42' W 117°10'0 0.0
2018-Jan-18 09:28N 32°42' W 117°10'0 0.0
2018-Jan-18 06:55N 32°42' W 117°10'0 0.0
2018-Jan-18 06:15N 32°42' W 117°10'0 0.0
2018-Jan-18 05:56N 32°42' W 117°10'  
2018-Jan-12 04:25N 32°42' W 117°10'0 0.0
2018-Jan-12 03:16N 32°42' W 117°10'0 0.0
2018-Jan-12 02:58N 32°42' W 117°10'0 0.0
2018-Jan-12 02:29N 32°42' W 117°10'7 2.6
2018-Jan-11 23:45N 32°37' W 117°16'2 8.2
2018-Jan-11 23:27N 32°36' W 117°18'1 1.2
2018-Jan-11 22:58N 32°36' W 117°18'2 4.4
2018-Jan-11 22:30N 32°38' W 117°17'4 7.4
2018-Jan-11 21:57N 32°41' W 117°14'  
Track history (hours):
 
Tides and Currents Weather Stations Pressure Air Temp Water Temp Dewpoint Dewpoint Depression Visibility Wind Speed Wind Dir Waves Ship Positions

Marietta

Owner: STAR & CRESCENT BOAT CO, SAN DIEGO, CA. More information available from US FCC via Universal Licensing System and Coast Guard Vessel Documentation Center.

Last reported at 2018-Jan-21 19:11 UTC. Time now 2018-Jan-23 23:52 UTC.
Position N 32°39' W 117°21'.

MMSI: 367373960.

Date/timePositionNaut miles runAvg speedWind from/ knotsBaromVisibWave heightAir tempDewpointWater temp
2018-Jan-21 19:11N 32°39' W 117°21'  
2018-Jan-18 21:30N 32°43' W 117°10'0 0.0
2018-Jan-18 21:00N 32°43' W 117°10'4 6.2
2018-Jan-18 20:24N 32°41' W 117°14'3 7.2
2018-Jan-18 19:56N 32°37' W 117°15'1 0.6
2018-Jan-18 18:30N 32°37' W 117°16'7 1.1
2018-Jan-18 11:52N 32°42' W 117°10'0 0.0
2018-Jan-18 11:16N 32°42' W 117°10'0 0.0
2018-Jan-18 10:51N 32°42' W 117°10'0 0.0
2018-Jan-18 10:15N 32°42' W 117°10'0 0.0
2018-Jan-18 10:00N 32°42' W 117°10'0 0.0
2018-Jan-18 09:28N 32°42' W 117°10'0 0.0
2018-Jan-18 06:55N 32°42' W 117°10'0 0.0
2018-Jan-18 06:15N 32°42' W 117°10'0 0.0
2018-Jan-18 05:56N 32°42' W 117°10'  
2018-Jan-12 04:25N 32°42' W 117°10'0 0.0
2018-Jan-12 03:16N 32°42' W 117°10'0 0.0
2018-Jan-12 02:58N 32°42' W 117°10'0 0.0
2018-Jan-12 02:29N 32°42' W 117°10'7 2.6
2018-Jan-11 23:45N 32°37' W 117°16'2 8.2
2018-Jan-11 23:27N 32°36' W 117°18'1 1.2
2018-Jan-11 22:58N 32°36' W 117°18'2 4.4
2018-Jan-11 22:30N 32°38' W 117°17'4 7.4
2018-Jan-11 21:57N 32°41' W 117°14'  

Dump ship's entire track history